ADDS METAR Data INFO
IDs: Format: Raw Decoded Include TAF

Data at: 0401 UTC 19 Jul 2018

KBKL 190353Z 11004KT 10SM CLR 21/12 A3007 RMK AO2 SLP179 T02110117
KBKL 190253Z 00000KT 10SM CLR 22/12 A3007 RMK AO2 SLP177 T02170117 53006
KBKL 190153Z 06004KT 10SM CLR 22/12 A3005 RMK AO2 SLP174 T02170122
KBKL 190053Z 03005KT 10SM CLR 23/11 A3005 RMK AO2 SLP172 T02280111
KBKL 182353Z 03007KT 10SM CLR 24/11 A3005 RMK AO2 SLP171 T02390111 10250 20239 56004
KBKL 182253Z 04006KT 10SM CLR 24/11 A3005 RMK AO2 SLP172 T02440111
KBKL 182153Z 04007KT 10SM CLR 24/11 A3005 RMK AO2 SLP173 T02440106
KBKL 182053Z 36008KT 10SM CLR 24/11 A3006 RMK AO2 SLP175 T02440111 58011
KBKL 181953Z 01009KT 10SM SCT050 24/13 A3007 RMK AO2 SLP180 T02440128
KBKL 181853Z 01010KT 10SM SCT050 24/14 A3009 RMK AO2 SLP184 T02440139
KBKL 181753Z 36009KT 10SM FEW027 SCT050 24/14 A3009 RMK AO2 SLP186 T02440139 10244 20211 57003
KBKL 181653Z 36008KT 10SM FEW027 SCT050 23/14 A3009 RMK AO2 SLP185 T02330139
KBKL 181553Z 35008KT 10SM FEW027 SCT050 23/14 A3010 RMK AO2 SLP189 T02280139
KBKL 181453Z 36009KT 10SM FEW027 SCT050 23/13 A3010 RMK AO2 SLP189 T02330133 51008
KBKL 181353Z 01011KT 10SM FEW027 SCT050 23/13 A3009 RMK AO2 SLP187 T02280133
KBKL 181253Z 01012KT 10SM FEW027 SCT050 22/14 A3009 RMK AO2 SLP184 T02170144
KBKL 181153Z 02011KT 10SM SCT050 22/14 A3008 RMK AO2 SLP180 T02170139 10222 20206 51013
KBKL 181053Z 01012KT 10SM SCT080 21/13 A3007 RMK AO2 SLP178 T02060133
KBKL 180953Z 01010KT 10SM CLR 21/13 A3005 RMK AO2 SLP172 T02060133
KBKL 180853Z 02011KT 10SM CLR 21/13 A3004 RMK AO2 SLP168 T02110133 52003
KBKL 180753Z 36011KT 10SM CLR 22/13 A3004 RMK AO2 SLP167 T02170133
KBKL 180653Z 01011KT 10SM CLR 22/12 A3003 RMK AO2 SLP166 T02220122
KBKL 180553Z 02012KT 10SM FEW070 22/13 A3003 RMK AO2 SLP165 60000 T02220128 10250 20222 51006
KBKL 180453Z 03013KT 10SM SCT075 23/13 A3003 RMK AO2 RAB10E13 SLP165 P0000 T02280128 402670228
KBKL 180353Z 02015KT 10SM CLR 23/13 A3002 RMK AO2 SLP163 T02280128
KBKL 180253Z 03012KT 10SM CLR 23/14 A3001 RMK AO2 SLP159 T02280139 53013
KBKL 180153Z 03013KT 10SM FEW080 23/14 A3000 RMK AO2 SLP155 T02330139
KBKL 180053Z 02013KT 10SM SCT055 BKN075 24/13 A2998 RMK AO2 SLP149 T02440133
KBKL 172353Z 02010KT 10SM SCT060 25/14 A2997 RMK AO2 SLP146 T02500144 10267 20244 53006
KBKL 172253Z 03011KT 10SM CLR 26/14 A2996 RMK AO2 SLP140 T02610144
KBKL 172153Z 02008KT 10SM FEW070 26/16 A2995 RMK AO2 SLP137 T02560156
KBKL 172053Z 31006KT 10SM CLR 26/15 A2996 RMK AO2 SLP139 T02610150 58001
KBKL 171953Z 30008KT 10SM FEW020 27/15 A2996 RMK AO2 SLP141 T02670150
KBKL 171853Z 33007KT 10SM FEW002 26/16 A2996 RMK AO2 SLP140 T02610156
KBKL 171851Z 32008KT 10SM FEW002 27/16 A2996 RMK AO2
KBKL 171753Z 34010KT 10SM CLR 26/15 A2997 RMK AO2 SLP143 T02610150 10267 20239 51004
KBKL 171653Z 01009KT 10SM FEW030 26/16 A2996 RMK AO2 SLP142 T02610156